Time;durP1;ratioP1;P1;durP2;ratioP2;P2;SDS_P1;SDS_P2;PMS_P1;PMS_P2;Temp;Humidity;BMP_temperature;BMP_pressure;BME280_temperature;BME280_humidity;BME280_pressure;Samples;Min_cycle;Max_cycle;Signal;HPM_P1;HPM_P2
2023/12/07 00:02:20;;;;;;;41.27;24.83;;;;;;;0.47;97.63;101685.66;5053558;28;20195;-73
2023/12/07 00:04:47;;;;;;;43.77;25.13;;;;;;;0.49;97.79;101684.75;5052948;28;20195;-73
2023/12/07 00:07:14;;;;;;;50.50;29.00;;;;;;;0.61;97.96;101697.38;5053604;28;20184;-73
2023/12/07 00:09:40;;;;;;;63.27;30.83;;;;;;;0.76;98.09;101689.72;5052954;28;20211;-73
2023/12/07 00:12:07;;;;;;;58.67;29.57;;;;;;;0.94;97.74;101703.81;5053083;28;20187;-73
2023/12/07 00:14:34;;;;;;;59.03;32.00;;;;;;;1.05;97.70;101701.59;5054297;28;20670;-73
2023/12/07 00:17:00;;;;;;;63.10;32.43;;;;;;;1.19;97.45;101695.72;5056764;28;20207;-73
2023/12/07 00:19:26;;;;;;;61.30;32.73;;;;;;;1.18;97.54;101697.50;5056809;28;20582;-73
2023/12/07 00:21:53;;;;;;;65.23;32.80;;;;;;;1.22;97.49;101695.59;5057386;28;20183;-73
2023/12/07 00:24:19;;;;;;;73.63;35.47;;;;;;;1.23;97.72;101697.31;5057036;28;20559;-73
2023/12/07 00:26:46;;;;;;;72.70;35.10;;;;;;;1.19;98.06;101690.47;5056155;28;20233;-73
2023/12/07 00:29:12;;;;;;;79.63;34.67;;;;;;;1.18;98.18;101701.91;5056619;28;20215;-72
2023/12/07 00:31:39;;;;;;;79.70;37.40;;;;;;;1.14;97.97;101695.06;5057194;28;20187;-72
2023/12/07 00:34:05;;;;;;;89.43;37.63;;;;;;;1.20;99.06;101694.78;5057151;28;20656;-72
2023/12/07 00:36:32;;;;;;;87.17;36.77;;;;;;;1.22;98.61;101706.97;5056727;28;20670;-73
2023/12/07 00:38:58;;;;;;;77.23;35.83;;;;;;;1.14;98.31;101695.06;5056427;28;20301;-73
2023/12/07 00:41:24;;;;;;;104.07;37.03;;;;;;;1.25;98.80;101690.16;5056702;28;20241;-73
2023/12/07 00:43:51;;;;;;;97.03;38.17;;;;;;;1.20;98.66;101690.38;5056764;28;20198;-73
2023/12/07 00:46:17;;;;;;;108.30;41.10;;;;;;;1.15;98.80;101694.13;5056929;28;20187;-73
2023/12/07 00:48:44;;;;;;;105.80;41.13;;;;;;;1.13;98.87;101688.94;5056331;28;20225;-73
2023/12/07 00:51:11;;;;;;;89.97;36.47;;;;;;;1.05;99.07;101682.31;5056289;28;20195;-73
2023/12/07 00:53:38;;;;;;;77.77;35.47;;;;;;;0.99;98.98;101690.47;5056321;28;20240;-73
2023/12/07 00:56:04;;;;;;;78.00;35.80;;;;;;;0.97;99.06;101692.31;5056439;28;20191;-73
2023/12/07 00:58:31;;;;;;;83.10;38.33;;;;;;;0.93;99.34;101696.88;5056117;28;20256;-73
2023/12/07 01:00:57;;;;;;;68.13;30.83;;;;;;;0.93;99.45;101688.13;5056337;28;20660;-73
2023/12/07 01:03:24;;;;;;;67.53;32.20;;;;;;;0.89;99.45;101695.31;5056088;28;20283;-73
2023/12/07 01:05:50;;;;;;;61.30;31.17;;;;;;;0.89;99.51;101695.31;5056028;28;20274;-73
2023/12/07 01:08:17;;;;;;;61.97;31.13;;;;;;;0.93;99.50;101693.38;5055934;28;20214;-73
2023/12/07 01:10:43;;;;;;;65.27;31.57;;;;;;;0.92;99.66;101703.06;5055982;28;20252;-73
2023/12/07 01:13:10;;;;;;;63.80;28.93;;;;;;;0.93;99.72;101706.53;5056132;28;20179;-73
2023/12/07 01:15:36;;;;;;;53.97;27.97;;;;;;;0.93;99.80;101711.81;5056114;28;20274;-73
2023/12/07 01:18:03;;;;;;;99.90;33.33;;;;;;;0.89;100.00;101714.56;5055616;28;20219;-73
2023/12/07 01:20:30;;;;;;;74.57;30.60;;;;;;;0.89;99.91;101711.91;5056355;28;20188;-73
2023/12/07 01:22:56;;;;;;;54.87;29.93;;;;;;;0.89;100.00;101713.72;5055786;28;20187;-73
2023/12/07 01:25:23;;;;;;;52.40;29.07;;;;;;;0.92;99.93;101713.59;5055692;28;20203;-73
2023/12/07 01:27:49;;;;;;;63.07;29.70;;;;;;;0.91;99.93;101707.47;5055579;28;20270;-73
2023/12/07 01:30:16;;;;;;;46.63;27.97;;;;;;;0.90;99.94;101718.03;5055615;28;20197;-73
2023/12/07 01:32:43;;;;;;;60.43;30.67;;;;;;;0.91;99.89;101712.72;5055570;28;20187;-74
2023/12/07 01:35:09;;;;;;;64.43;30.33;;;;;;;0.93;99.92;101717.94;5055742;28;20651;-74
2023/12/07 01:37:36;;;;;;;52.10;27.43;;;;;;;0.93;99.80;101711.81;5055697;28;20226;-74
2023/12/07 01:40:05;;;;;;;62.57;28.30;;;;;;;0.86;100.00;101722.59;5055309;28;20300;-73
2023/12/07 01:42:32;;;;;;;46.00;26.27;;;;;;;0.88;99.93;101718.13;5055406;28;20183;-73
2023/12/07 01:44:58;;;;;;;51.90;29.03;;;;;;;0.89;100.00;101721.63;5055658;28;20187;-73
2023/12/07 01:47:25;;;;;;;50.77;27.27;;;;;;;0.92;100.00;101732.00;5055894;28;20651;-73
2023/12/07 01:49:52;;;;;;;65.17;27.20;;;;;;;0.96;99.87;101736.22;5055397;28;20211;-73
2023/12/07 01:52:22;;;;;;;63.43;29.53;;;;;;;0.95;100.00;101726.59;5056230;28;20253;-73
2023/12/07 01:54:49;;;;;;;100.87;29.93;;;;;;;0.95;99.64;101731.00;5056133;28;20186;-73
2023/12/07 01:57:15;;;;;;;64.33;27.93;;;;;;;0.98;99.50;101739.63;5055541;28;20211;-73
2023/12/07 01:59:42;;;;;;;51.30;28.30;;;;;;;0.91;99.67;101735.56;5055357;28;20203;-73
2023/12/07 02:02:08;;;;;;;48.10;27.03;;;;;;;0.86;99.66;101733.13;5055112;28;20195;-73
2023/12/07 02:04:35;;;;;;;42.37;25.80;;;;;;;0.87;99.71;101729.56;5055009;28;20195;-73
2023/12/07 02:07:04;;;;;;;44.40;24.77;;;;;;;0.89;99.74;101730.34;5055224;28;20639;-73
2023/12/07 02:09:31;;;;;;;66.57;30.30;;;;;;;0.86;99.90;101730.50;5054837;28;20239;-73
2023/12/07 02:11:58;;;;;;;58.83;29.60;;;;;;;0.87;99.99;101719.03;5054854;28;20202;-73
2023/12/07 02:14:25;;;;;;;51.13;27.67;;;;;;;0.87;99.81;101724.31;5054811;28;20194;-73
2023/12/07 02:17:10;;;;;;;54.53;29.70;;;;;;;0.89;99.95;101729.53;5054542;28;20705;-73
2023/12/07 02:19:51;;;;;;;54.33;28.40;;;;;;;0.88;100.00;101730.44;5054685;28;20261;-73
2023/12/07 02:22:31;;;;;;;99.97;36.13;;;;;;;0.93;99.57;101731.09;5055213;28;20507;-73
2023/12/07 02:25:09;;;;;;;60.77;31.43;;;;;;;0.93;99.61;101739.00;5054933;28;20186;-73
2023/12/07 02:27:39;;;;;;;75.03;35.77;;;;;;;0.97;99.58;101734.44;5054501;28;20168;-73
2023/12/07 02:30:11;;;;;;;63.23;32.57;;;;;;;0.98;100.00;101739.63;5054371;28;20264;-74
2023/12/07 02:32:39;;;;;;;77.03;34.10;;;;;;;1.04;99.77;101736.75;5054726;28;20171;-74
2023/12/07 02:35:07;;;;;;;62.73;33.73;;;;;;;1.03;99.81;101750.81;5054685;28;20183;-74
2023/12/07 02:37:42;;;;;;;64.70;33.80;;;;;;;1.02;99.91;101745.66;5053696;28;20599;-74
2023/12/07 02:40:10;;;;;;;135.27;44.93;;;;;;;1.02;99.94;101753.53;5054603;28;20566;-74
2023/12/07 02:42:39;;;;;;;82.57;36.37;;;;;;;1.05;99.77;101754.25;5054198;28;20195;-73
2023/12/07 02:45:07;;;;;;;63.97;32.87;;;;;;;1.04;99.88;101749.03;5054231;28;20192;-73
2023/12/07 02:47:34;;;;;;;157.20;33.33;;;;;;;1.04;99.48;101755.19;5054210;28;20187;-73
2023/12/07 02:50:02;;;;;;;64.13;31.80;;;;;;;0.99;99.91;101754.50;5054250;28;20212;-73
2023/12/07 02:52:28;;;;;;;205.97;33.13;;;;;;;0.96;99.91;101759.91;5054052;28;20195;-73
2023/12/07 02:54:55;;;;;;;54.57;29.07;;;;;;;0.93;99.95;101746.88;5053955;28;20187;-73
2023/12/07 02:57:21;;;;;;;84.47;31.47;;;;;;;0.90;99.74;101749.63;5053876;28;20207;-73
2023/12/07 02:59:48;;;;;;;45.10;26.77;;;;;;;0.88;99.57;101746.22;5053863;28;20285;-73
2023/12/07 03:02:14;;;;;;;56.17;29.17;;;;;;;0.87;100.00;101741.88;5053870;28;20245;-73
2023/12/07 03:04:41;;;;;;;108.30;31.70;;;;;;;0.85;99.90;101739.28;5054082;28;20713;-73
2023/12/07 03:07:07;;;;;;;58.17;29.03;;;;;;;0.76;99.88;101746.75;5054018;28;20191;-73
2023/12/07 03:09:34;;;;;;;59.03;30.27;;;;;;;0.73;99.68;101744.22;5053663;28;20233;-73
2023/12/07 03:12:00;;;;;;;81.20;28.40;;;;;;;0.71;99.80;101743.44;5053708;28;20241;-73
2023/12/07 03:14:27;;;;;;;92.80;28.13;;;;;;;0.73;100.00;101737.19;5053652;28;20191;-73
2023/12/07 03:16:53;;;;;;;61.73;27.60;;;;;;;0.70;99.99;101737.31;5053387;28;20210;-73
2023/12/07 03:19:20;;;;;;;53.47;27.27;;;;;;;0.69;99.92;101732.13;5053532;28;20322;-73
2023/12/07 03:21:46;;;;;;;100.10;30.33;;;;;;;0.72;99.95;101730.22;5053502;28;20187;-73
2023/12/07 03:24:13;;;;;;;99.87;29.77;;;;;;;0.74;99.97;101733.66;5053472;28;20667;-73
2023/12/07 03:26:39;;;;;;;56.57;27.87;;;;;;;0.70;100.00;101729.44;5053570;28;20663;-73
2023/12/07 03:29:06;;;;;;;68.73;29.10;;;;;;;0.73;100.00;101723.16;5053607;28;20707;-73
2023/12/07 03:31:32;;;;;;;97.97;29.53;;;;;;;0.75;99.89;101732.72;5053374;28;20191;-73
2023/12/07 03:34:00;;;;;;;71.03;34.43;;;;;;;0.70;100.00;101732.06;5053286;28;20744;-73
2023/12/07 03:36:27;;;;;;;60.73;30.47;;;;;;;0.72;99.95;101735.47;5053597;28;20198;-73
2023/12/07 03:38:56;;;;;;;92.00;32.07;;;;;;;0.77;99.99;101743.16;5053093;28;20223;-73
2023/12/07 03:41:23;;;;;;;60.93;29.40;;;;;;;0.77;99.94;101736.13;5053229;28;20191;-73
2023/12/07 03:43:49;;;;;;;80.80;29.40;;;;;;;0.82;100.00;101736.81;5053181;28;20193;-73
2023/12/07 03:46:16;;;;;;;73.43;33.03;;;;;;;0.83;100.00;101743.78;5053196;28;20187;-73
2023/12/07 03:48:43;;;;;;;138.90;35.63;;;;;;;0.83;99.86;101749.06;5052616;28;20753;-73
2023/12/07 03:51:13;;;;;;;84.20;34.50;;;;;;;0.84;99.75;101748.13;5053379;28;20257;-73
2023/12/07 03:53:39;;;;;;;131.93;31.00;;;;;;;0.84;99.87;101748.13;5053388;28;20251;-73
2023/12/07 03:56:06;;;;;;;66.20;31.60;;;;;;;0.95;100.00;101746.81;5053111;28;20242;-73
2023/12/07 03:58:32;;;;;;;141.70;30.57;;;;;;;0.93;99.88;101747.72;5052843;28;20215;-73
2023/12/07 04:00:59;;;;;;;63.07;31.30;;;;;;;0.88;100.00;101748.84;5052981;28;20274;-73
2023/12/07 04:03:25;;;;;;;66.20;29.73;;;;;;;0.93;99.99;101752.16;5052996;28;20222;-73
2023/12/07 04:05:52;;;;;;;68.97;29.43;;;;;;;0.90;100.00;101755.75;5053225;28;20594;-73
2023/12/07 04:08:19;;;;;;;83.00;33.47;;;;;;;0.96;99.65;101752.03;5052858;28;20617;-72
2023/12/07 04:10:45;;;;;;;68.83;30.67;;;;;;;0.99;100.00;101745.75;5053491;28;20248;-73
2023/12/07 04:13:12;;;;;;;149.53;35.13;;;;;;;1.05;100.00;101750.78;5052856;28;20191;-73
2023/12/07 04:15:39;;;;;;;114.57;33.30;;;;;;;1.05;100.00;101753.41;5052871;28;20199;-73
2023/12/07 04:18:05;;;;;;;67.43;30.27;;;;;;;1.09;100.00;101755.84;5052611;28;20699;-73
2023/12/07 04:20:31;;;;;;;77.83;29.07;;;;;;;1.13;99.75;101756.56;5053066;28;20202;-73
2023/12/07 04:22:58;;;;;;;71.00;30.33;;;;;;;1.14;100.00;101753.88;5052850;28;20678;-73
2023/12/07 04:25:24;;;;;;;97.07;30.97;;;;;;;1.19;100.00;101758.94;5053297;28;20199;-73
2023/12/07 04:27:51;;;;;;;76.70;30.10;;;;;;;1.21;100.00;101757.06;5053223;28;20180;-73
2023/12/07 04:30:18;;;;;;;72.90;28.57;;;;;;;1.24;100.00;101754.28;5051491;28;20205;-73
2023/12/07 04:32:44;;;;;;;80.07;31.10;;;;;;;1.28;100.00;101758.50;5052702;28;20604;-73
2023/12/07 04:35:11;;;;;;;79.63;29.97;;;;;;;1.31;100.00;101768.94;5052711;28;20207;-73
2023/12/07 04:37:37;;;;;;;70.50;27.80;;;;;;;1.38;100.00;101762.47;5052627;28;20205;-73
2023/12/07 04:40:05;;;;;;;99.20;34.33;;;;;;;1.40;100.00;101770.31;5052555;28;20202;-73
2023/12/07 04:42:31;;;;;;;92.60;31.17;;;;;;;1.43;100.00;101767.53;5052619;28;20196;-73
2023/12/07 04:44:58;;;;;;;84.33;30.17;;;;;;;1.44;100.00;101772.75;5052619;28;20211;-73
2023/12/07 04:47:25;;;;;;;84.57;30.43;;;;;;;1.49;100.00;101772.50;5052578;28;20250;-73
2023/12/07 04:49:51;;;;;;;101.90;31.20;;;;;;;1.51;100.00;101774.16;5052540;28;20215;-73
2023/12/07 04:52:19;;;;;;;93.93;31.00;;;;;;;1.53;100.00;101769.66;5052858;28;20183;-74
2023/12/07 04:54:45;;;;;;;89.63;29.50;;;;;;;1.51;100.00;101779.44;5051390;28;20528;-74
2023/12/07 04:57:12;;;;;;;94.97;30.83;;;;;;;1.53;100.00;101772.31;5052373;28;20198;-75
2023/12/07 04:59:38;;;;;;;96.80;29.93;;;;;;;1.54;100.00;101762.63;5052942;28;20230;-73
2023/12/07 05:02:06;;;;;;;93.90;30.90;;;;;;;1.57;100.00;101755.44;5055904;28;20190;-73
2023/12/07 05:04:33;;;;;;;83.90;29.23;;;;;;;1.59;100.00;101764.13;5056592;28;20551;-74
2023/12/07 05:07:01;;;;;;;84.50;30.00;;;;;;;1.60;100.00;101762.38;5056358;28;20201;-74
2023/12/07 05:09:30;;;;;;;99.50;30.67;;;;;;;1.61;100.00;101761.44;5055908;28;20552;-74
2023/12/07 05:11:58;;;;;;;90.90;29.63;;;;;;;1.62;100.00;101758.72;5055930;28;20552;-74
2023/12/07 05:14:24;;;;;;;91.03;30.03;;;;;;;1.64;100.00;101763.94;5056156;28;20190;-74
2023/12/07 05:16:55;;;;;;;94.23;30.03;;;;;;;1.65;100.00;101760.38;5055723;28;20191;-74
2023/12/07 05:19:23;;;;;;;84.77;28.57;;;;;;;1.67;100.00;101769.06;5056246;28;20236;-73
2023/12/07 05:21:50;;;;;;;72.93;26.60;;;;;;;1.71;100.00;101765.34;5054533;28;20245;-73
2023/12/07 05:24:17;;;;;;;82.80;28.07;;;;;;;1.71;100.00;101760.94;5056278;28;20248;-73
2023/12/07 05:26:48;;;;;;;85.97;28.67;;;;;;;1.74;100.00;101763.44;5055645;28;20187;-74
2023/12/07 05:29:14;;;;;;;79.43;28.20;;;;;;;1.74;100.00;101773.16;5054393;28;20254;-74
2023/12/07 05:31:41;;;;;;;84.50;28.77;;;;;;;1.74;100.00;101773.16;5055872;28;20186;-71
2023/12/07 05:34:07;;;;;;;70.13;25.00;;;;;;;1.76;100.00;101771.28;5055750;28;20218;-70
2023/12/07 05:36:34;;;;;;;64.67;26.13;;;;;;;1.80;100.00;101778.97;5056000;28;20190;-70
2023/12/07 05:39:01;;;;;;;73.33;28.80;;;;;;;1.83;100.00;101777.97;5054183;28;20670;-70
2023/12/07 05:41:27;;;;;;;80.77;27.37;;;;;;;1.87;100.00;101776.06;5055374;28;20192;-70
2023/12/07 05:43:54;;;;;;;75.90;28.00;;;;;;;1.86;100.00;101774.34;5055320;28;20253;-70
2023/12/07 05:46:20;;;;;;;72.97;27.20;;;;;;;1.86;100.00;101777.00;5055304;28;20195;-70
2023/12/07 05:48:47;;;;;;;79.53;28.87;;;;;;;1.86;100.00;101758.53;5055177;28;20197;-70
2023/12/07 05:51:15;;;;;;;85.90;28.27;;;;;;;1.90;100.00;101768.00;5055364;28;20194;-70
2023/12/07 05:53:42;;;;;;;77.77;26.00;;;;;;;1.90;100.00;101768.00;5055664;28;20194;-70
2023/12/07 05:56:09;;;;;;;71.40;26.20;;;;;;;1.91;100.00;101767.09;5055087;28;20775;-70
2023/12/07 05:58:36;;;;;;;76.20;27.87;;;;;;;1.89;100.00;101767.16;5054975;28;20222;-70
2023/12/07 06:01:02;;;;;;;65.77;26.60;;;;;;;1.90;100.00;101763.59;5054350;28;20225;-70
2023/12/07 06:03:29;;;;;;;83.57;28.60;;;;;;;1.92;100.00;101767.00;5055056;28;20187;-70
2023/12/07 06:05:56;;;;;;;76.57;28.47;;;;;;;1.93;100.00;101760.81;5054951;28;20197;-70
2023/12/07 06:08:22;;;;;;;74.03;27.60;;;;;;;1.98;100.00;101763.25;5055229;28;20214;-70
2023/12/07 06:10:49;;;;;;;78.80;28.43;;;;;;;1.99;100.00;101762.31;5054697;28;20189;-70
2023/12/07 06:13:15;;;;;;;96.60;32.17;;;;;;;2.00;100.00;101759.59;5054175;28;20191;-70
2023/12/07 06:15:42;;;;;;;78.67;30.00;;;;;;;2.03;100.00;101750.69;5054981;28;20267;-70
2023/12/07 06:18:08;;;;;;;75.87;28.80;;;;;;;2.04;100.00;101755.03;5054557;28;20224;-71
2023/12/07 06:20:35;;;;;;;73.90;28.93;;;;;;;2.09;100.00;101747.75;5055148;28;20658;-70
2023/12/07 06:23:02;;;;;;;77.43;28.83;;;;;;;2.10;100.00;101752.09;5054910;28;20248;-70
2023/12/07 06:25:28;;;;;;;75.60;31.00;;;;;;;2.10;100.00;101746.84;5055079;28;20193;-70
2023/12/07 06:27:56;;;;;;;90.67;31.00;;;;;;;2.10;100.00;101747.69;5054624;28;20274;-70
2023/12/07 06:30:22;;;;;;;72.13;28.33;;;;;;;2.12;100.00;101751.09;5054678;28;20197;-70
2023/12/07 06:32:49;;;;;;;72.63;27.37;;;;;;;2.12;100.00;101745.00;5054480;28;20735;-70
2023/12/07 06:35:16;;;;;;;75.53;28.43;;;;;;;2.14;100.00;101753.66;5054660;28;20192;-70
2023/12/07 06:37:42;;;;;;;67.40;26.67;;;;;;;2.15;100.00;101756.25;5053101;28;20224;-70
2023/12/07 06:40:09;;;;;;;60.40;26.40;;;;;;;2.15;100.00;101750.97;5054781;28;20203;-70
2023/12/07 06:42:36;;;;;;;54.60;25.60;;;;;;;2.16;100.00;101746.56;5054602;28;20211;-70
2023/12/07 06:45:03;;;;;;;68.23;28.10;;;;;;;2.13;100.00;101749.31;5054184;28;20201;-70
2023/12/07 06:47:29;;;;;;;65.93;27.37;;;;;;;2.17;100.00;101745.59;5054107;28;20190;-70
2023/12/07 06:49:55;;;;;;;70.27;29.63;;;;;;;2.13;100.00;101746.69;5054069;28;20202;-71
2023/12/07 06:52:22;;;;;;;66.87;28.37;;;;;;;2.16;100.00;101746.56;5054323;28;20239;-70
2023/12/07 06:54:49;;;;;;;65.33;28.20;;;;;;;2.15;100.00;101752.75;5053890;28;20198;-70
2023/12/07 06:57:15;;;;;;;63.77;26.17;;;;;;;2.07;100.00;101747.00;5053878;28;20239;-70
2023/12/07 06:59:42;;;;;;;62.50;24.97;;;;;;;1.99;100.00;101747.34;5053769;28;20211;-70
2023/12/07 07:02:08;;;;;;;58.87;25.63;;;;;;;1.94;100.00;101751.13;5053774;28;20185;-70
2023/12/07 07:04:35;;;;;;;54.17;26.13;;;;;;;1.94;100.00;101753.75;5054069;28;20198;-70
2023/12/07 07:07:01;;;;;;;55.27;25.73;;;;;;;1.91;99.98;101746.00;5053923;28;20270;-70
2023/12/07 07:09:28;;;;;;;58.50;26.50;;;;;;;1.86;100.00;101750.63;5053573;28;20214;-70
2023/12/07 07:11:54;;;;;;;70.20;28.70;;;;;;;1.82;100.00;101748.13;5052968;28;20258;-70
2023/12/07 07:14:21;;;;;;;57.47;26.43;;;;;;;1.76;100.00;101750.19;5053619;28;20188;-70
2023/12/07 07:16:47;;;;;;;55.23;26.80;;;;;;;1.69;99.87;101751.41;5053629;28;20192;-70
2023/12/07 07:19:14;;;;;;;54.37;25.70;;;;;;;1.61;100.00;101753.53;5053346;28;20220;-70
2023/12/07 07:21:40;;;;;;;65.47;27.20;;;;;;;1.56;100.00;101748.47;5053895;28;20191;-70
2023/12/07 07:24:07;;;;;;;58.03;24.80;;;;;;;1.55;100.00;101746.75;5053350;28;20182;-70
2023/12/07 07:26:35;;;;;;;72.10;27.13;;;;;;;1.51;99.65;101754.88;5053449;28;20211;-70
2023/12/07 07:29:03;;;;;;;53.87;23.27;;;;;;;1.44;99.80;101748.16;5053650;28;20635;-71
2023/12/07 07:31:30;;;;;;;62.10;27.23;;;;;;;1.44;99.73;101742.91;5053233;28;20215;-70
2023/12/07 07:33:56;;;;;;;79.33;26.33;;;;;;;1.38;99.84;101749.28;5053371;28;20650;-70
2023/12/07 07:36:27;;;;;;;56.53;25.27;;;;;;;1.32;99.79;101745.13;5053565;28;20575;-70
2023/12/07 07:38:54;;;;;;;61.17;25.80;;;;;;;1.27;100.00;101757.66;5053032;28;20213;-70
2023/12/07 07:41:21;;;;;;;73.73;27.33;;;;;;;1.25;99.93;101756.03;5053177;28;20185;-70
2023/12/07 07:43:47;;;;;;;58.77;25.50;;;;;;;1.18;100.00;101750.19;5053753;28;20196;-70
2023/12/07 07:46:14;;;;;;;70.37;26.17;;;;;;;1.13;100.00;101740.75;5053191;28;20188;-70
2023/12/07 07:48:40;;;;;;;78.33;27.77;;;;;;;1.04;99.97;101743.78;5053094;28;20207;-70
2023/12/07 07:51:07;;;;;;;67.67;26.47;;;;;;;1.04;100.00;101741.16;5053368;28;20197;-70
2023/12/07 07:53:34;;;;;;;57.63;25.90;;;;;;;1.08;100.00;101742.72;5053702;28;20231;-70
2023/12/07 07:56:00;;;;;;;66.90;25.87;;;;;;;1.14;100.00;101753.00;5053599;28;20679;-70
2023/12/07 07:58:27;;;;;;;60.20;26.07;;;;;;;1.10;100.00;101751.44;5052887;28;20714;-71
2023/12/07 08:00:53;;;;;;;70.07;28.93;;;;;;;1.13;100.00;101752.16;5053043;28;20187;-71
2023/12/07 08:03:20;;;;;;;62.53;25.07;;;;;;;1.12;100.00;101744.31;5053288;28;20217;-70
2023/12/07 08:05:46;;;;;;;57.60;27.20;;;;;;;1.12;99.98;101742.53;5052978;28;20176;-70
2023/12/07 08:08:13;;;;;;;69.67;28.70;;;;;;;1.17;99.92;101743.19;5053104;28;20624;-70
2023/12/07 08:10:39;;;;;;;77.20;30.63;;;;;;;1.19;100.00;101741.31;5053039;28;20194;-70
2023/12/07 08:13:21;;;;;;;64.60;27.63;;;;;;;1.22;100.00;101743.00;5053273;28;20176;-70
2023/12/07 08:15:48;;;;;;;68.87;27.63;;;;;;;1.21;100.00;101747.41;5052953;28;20221;-70
2023/12/07 08:18:14;;;;;;;69.97;26.77;;;;;;;1.24;99.99;101744.63;5052745;28;20682;-70
2023/12/07 08:20:41;;;;;;;67.30;27.17;;;;;;;1.31;100.00;101747.84;5052823;28;20232;-70
2023/12/07 08:23:07;;;;;;;55.87;24.90;;;;;;;1.34;100.00;101758.25;5052845;28;20191;-70
2023/12/07 08:25:34;;;;;;;54.57;25.83;;;;;;;1.34;100.00;101755.63;5052797;28;20244;-70
2023/12/07 08:28:00;;;;;;;64.47;26.00;;;;;;;1.37;100.00;101751.06;5052995;28;20615;-71
2023/12/07 08:30:27;;;;;;;69.10;26.60;;;;;;;1.45;99.97;101748.09;5053269;28;20187;-71
2023/12/07 08:32:54;;;;;;;67.70;27.40;;;;;;;1.49;100.00;101756.69;5052662;28;20178;-70
2023/12/07 08:35:21;;;;;;;73.73;29.13;;;;;;;1.57;100.00;101757.25;5053162;28;20188;-70
2023/12/07 08:37:48;;;;;;;69.20;27.67;;;;;;;1.59;100.00;101753.59;5056505;28;20667;-71
2023/12/07 08:40:15;;;;;;;74.00;27.40;;;;;;;1.64;100.00;101745.47;5056757;28;20250;-70
2023/12/07 08:42:46;;;;;;;58.93;27.43;;;;;;;1.68;100.00;101747.91;5056538;28;20575;-70
2023/12/07 08:45:15;;;;;;;74.30;28.30;;;;;;;1.75;100.00;101749.34;5056786;28;20184;-70
2023/12/07 08:47:42;;;;;;;79.00;29.00;;;;;;;1.77;100.00;101755.41;5056443;28;20246;-70
2023/12/07 08:50:09;;;;;;;74.17;26.70;;;;;;;1.88;100.00;101761.94;5056608;28;20641;-71
2023/12/07 08:52:35;;;;;;;70.83;29.47;;;;;;;1.90;100.00;101754.84;5056797;28;20599;-71
2023/12/07 08:55:15;;;;;;;76.30;29.43;;;;;;;1.96;100.00;101757.16;5056537;28;20214;-71
2023/12/07 08:57:42;;;;;;;71.03;28.03;;;;;;;2.02;100.00;101749.84;5056192;28;20189;-71
2023/12/07 09:00:08;;;;;;;69.20;28.60;;;;;;;2.14;100.00;101765.09;5056344;28;20201;-70
2023/12/07 09:02:35;;;;;;;70.33;27.03;;;;;;;2.24;100.00;101760.22;5056690;28;20196;-70
2023/12/07 09:05:13;;;;;;;75.27;28.13;;;;;;;2.30;100.00;101767.84;5056340;28;20232;-70
2023/12/07 09:07:39;;;;;;;77.27;27.40;;;;;;;2.33;100.00;101773.00;5056555;28;20200;-70
2023/12/07 09:10:08;;;;;;;75.90;27.90;;;;;;;2.35;100.00;101775.53;5055982;28;20628;-71
2023/12/07 09:12:38;;;;;;;63.13;28.10;;;;;;;2.42;100.00;101782.25;5055872;28;20530;-71
2023/12/07 09:15:09;;;;;;;77.97;28.30;;;;;;;2.50;100.00;101773.03;5056211;28;20240;-71
2023/12/07 09:17:40;;;;;;;75.77;29.63;;;;;;;2.51;100.00;101774.72;5055997;28;20193;-71
2023/12/07 09:20:14;;;;;;;66.40;29.27;;;;;;;2.58;100.00;101762.94;5056210;28;20193;-71
2023/12/07 09:22:43;;;;;;;82.13;29.30;;;;;;;2.63;100.00;101758.28;5055774;28;20185;-71
2023/12/07 09:25:11;;;;;;;78.83;30.03;;;;;;;2.68;100.00;101758.03;5055988;28;20216;-71
2023/12/07 09:27:39;;;;;;;65.63;26.10;;;;;;;2.79;100.00;101766.31;5055641;28;20194;-71
2023/12/07 09:30:12;;;;;;;72.50;29.50;;;;;;;2.84;100.00;101766.94;5055438;28;20264;-71
2023/12/07 09:32:42;;;;;;;73.03;30.10;;;;;;;2.89;100.00;101770.19;5055903;28;20177;-71
2023/12/07 09:35:19;;;;;;;68.30;28.37;;;;;;;2.98;100.00;101758.28;5056124;28;20266;-71
2023/12/07 09:37:48;;;;;;;71.07;28.90;;;;;;;3.08;100.00;101754.25;5055982;28;20534;-71
2023/12/07 09:40:17;;;;;;;77.60;29.70;;;;;;;3.14;100.00;101756.59;5055349;28;20214;-71
2023/12/07 09:42:44;;;;;;;82.93;32.40;;;;;;;3.22;100.00;101755.25;5055411;28;20313;-71
2023/12/07 09:45:11;;;;;;;73.40;31.03;;;;;;;3.30;100.00;101752.22;5055559;28;20206;-71
2023/12/07 09:47:39;;;;;;;62.23;28.80;;;;;;;3.32;100.00;101752.97;5054246;28;20563;-71
2023/12/07 09:50:11;;;;;;;71.90;29.93;;;;;;;3.37;100.00;101750.97;5055665;28;20203;-71
2023/12/07 09:52:39;;;;;;;70.90;28.00;;;;;;;3.42;100.00;101740.16;5056058;28;20222;-71
2023/12/07 09:55:08;;;;;;;71.57;29.00;;;;;;;3.47;100.00;101736.34;5055247;28;20253;-71
2023/12/07 09:57:36;;;;;;;72.57;28.20;;;;;;;3.49;99.67;101739.72;5053968;28;20610;-71
2023/12/07 10:00:04;;;;;;;64.03;29.37;;;;;;;3.54;99.65;101740.34;5054934;28;20620;-71
2023/12/07 10:02:36;;;;;;;72.53;28.70;;;;;;;3.61;98.60;101736.44;5055028;28;20236;-71
2023/12/07 10:05:06;;;;;;;79.80;30.33;;;;;;;3.67;98.21;101728.19;5055056;28;20276;-71
2023/12/07 10:07:35;;;;;;;70.73;29.17;;;;;;;3.72;99.18;101724.44;5055284;28;20276;-74
2023/12/07 10:10:03;;;;;;;52.57;26.67;;;;;;;3.82;99.01;101728.28;5055561;28;20210;-74
2023/12/07 10:12:30;;;;;;;66.43;27.83;;;;;;;3.89;98.64;101721.72;5054983;28;20179;-74
2023/12/07 10:14:58;;;;;;;55.90;28.00;;;;;;;3.92;97.79;101718.91;5053756;28;20199;-72
2023/12/07 10:17:24;;;;;;;61.37;28.87;;;;;;;4.01;97.75;101716.59;5054750;28;20265;-72
2023/12/07 10:20:12;;;;;;;63.77;27.87;;;;;;;4.04;97.03;101705.84;5054813;28;20257;-74
2023/12/07 10:22:39;;;;;;;60.87;29.23;;;;;;;4.11;96.99;101696.63;5054833;28;20203;-71
2023/12/07 10:25:06;;;;;;;56.37;25.70;;;;;;;4.19;94.95;101693.53;5055041;28;20509;-72
2023/12/07 10:27:33;;;;;;;46.93;25.50;;;;;;;4.23;93.03;101695.06;5055111;28;20175;-71
2023/12/07 10:29:59;;;;;;;48.57;25.40;;;;;;;4.28;93.08;101698.31;5054985;28;20211;-71
2023/12/07 10:32:26;;;;;;;54.67;23.93;;;;;;;4.41;92.88;101677.28;5054464;28;20191;-71
2023/12/07 10:34:53;;;;;;;48.97;24.67;;;;;;;4.46;91.53;101681.34;5054375;28;20701;-71
2023/12/07 10:37:20;;;;;;;59.70;25.67;;;;;;;4.57;91.72;101681.59;5054890;28;20191;-71
2023/12/07 10:39:46;;;;;;;48.57;24.63;;;;;;;4.71;90.71;101683.41;5054103;28;20207;-74
2023/12/07 10:42:16;;;;;;;48.27;24.17;;;;;;;4.82;91.34;101674.84;5054252;28;20223;-75
2023/12/07 10:44:45;;;;;;;42.10;22.07;;;;;;;4.90;89.97;101678.72;5054719;28;20217;-75
2023/12/07 10:47:12;;;;;;;50.73;24.00;;;;;;;4.98;89.96;101665.03;5054144;28;20575;-74
2023/12/07 10:49:41;;;;;;;43.23;24.17;;;;;;;5.05;89.38;101658.38;5054157;28;20210;-74
2023/12/07 10:52:16;;;;;;;29.63;19.10;;;;;;;5.09;87.94;101651.13;5054391;28;20756;-74
2023/12/07 10:55:20;;;;;;;39.20;20.17;;;;;;;5.11;86.26;101650.06;5052771;28;20282;-74
2023/12/07 10:57:47;;;;;;;41.10;19.97;;;;;;;5.18;86.69;101642.63;5035945;28;20568;-74
2023/12/07 11:00:14;;;;;;;39.97;20.37;;;;;;;5.25;86.96;101633.31;5053942;28;20203;-74
2023/12/07 11:02:42;;;;;;;25.60;18.87;;;;;;;5.26;83.42;101625.25;5053850;28;20180;-74
2023/12/07 11:05:09;;;;;;;36.40;18.80;;;;;;;5.29;84.54;101630.41;5053879;28;20249;-74
2023/12/07 11:07:45;;;;;;;28.60;18.37;;;;;;;5.37;83.96;101627.25;5052602;28;20207;-74
2023/12/07 11:10:21;;;;;;;31.40;16.47;;;;;;;5.47;84.05;101621.25;5054071;28;20196;-74
2023/12/07 11:12:56;;;;;;;28.83;17.50;;;;;;;5.57;83.74;101623.34;5053934;28;20262;-74
2023/12/07 11:15:23;;;;;;;24.63;16.60;;;;;;;5.55;83.19;101615.50;5054039;28;20179;-74